Paulistana II — 00 — position and weather

sailwx.info

Track history (hours):
 
Tides and Currents Weather Stations Pressure Air Temp Water Temp Dewpoint Dewpoint Depression Visibility Wind Speed Wind Dir Waves Ship Positions

Paulistana II

Last reported at 2014-Sep-18 15:32 UTC. Time now 2014-Sep-18 15:44 UTC.
Position N 49°18' W 123°08'.

Length 6 m.

Type: Pollution control. MMSI: 316014038.

Date/timePositionNaut miles runAvg speedWind from/ knotsBaromVisibWave heightAir tempDewpointWater temp
2014-Sep-18 15:32N 49°18' W 123°08'539147799.4
2014-Sep-18 15:25N 31°20' E 121°25'53916083.6
2014-Sep-18 14:32N 49°18' W 123°08'0 0.0
2014-Sep-18 13:32N 49°18' W 123°08'0 0.0
2014-Sep-18 12:32N 49°18' W 123°08'5384174620.4
2014-Sep-18 12:30N 31°44' E 121°07'53845557.0
2014-Sep-18 11:32N 49°18' W 123°08'0 0.0
2014-Sep-18 10:32N 49°18' W 123°08'517217240.8
2014-Sep-18 10:14N 38°48' E 117°50'51727394.8
2014-Sep-18 09:32N 49°18' W 123°08'538296401.0
2014-Sep-18 09:29N 31°31' E 121°24'10353.9
2014-Sep-18 09:27N 31°21' E 121°26'7 8.2
2014-Sep-18 08:34N 31°28' E 121°28'5382233430.9
2014-Sep-18 08:32N 49°18' W 123°08'538635060.0
2014-Sep-18 08:23N 31°22' E 121°30'3 3.7
2014-Sep-18 07:33N 31°25' E 121°31'5382538202.4
2014-Sep-18 07:32N 49°18' W 123°08'0 0.0
2014-Sep-18 06:32N 49°18' W 123°08'5385334259.4
2014-Sep-18 06:31N 31°21' E 121°32'53855473.5
2014-Sep-18 05:32N 49°18' W 123°08'0 0.0
2014-Sep-18 04:32N 49°18' W 123°08'0 0.0
2014-Sep-18 03:26N 49°18' W 123°08'0 0.0
2014-Sep-18 02:32N 49°18' W 123°08'540713689.7
2014-Sep-18 02:08N 31°58' E 120°20'54078950.2
2014-Sep-18 01:32N 49°18' W 123°08'97016863.9
2014-Sep-18 01:29N 33°37' W 117°55'6142156816.3
2014-Sep-18 01:26N 31°58' E 120°20'54075984.2
2014-Sep-18 00:32N 49°18' W 123°08'970151774.2
2014-Sep-18 00:32N 33°37' W 117°55'614232231.9
2014-Sep-18 00:20N 31°58' E 120°20'0 0.0
2014-Sep-17 23:32N 31°58' E 120°20'6142713260.8
2014-Sep-17 23:32N 33°37' W 117°55'97021954.8
2014-Sep-17 23:29N 49°18' W 123°08'54075702.0
2014-Sep-17 22:32N 31°58' E 120°20'54074866682.8
2014-Sep-17 22:32N 49°18' W 123°08'97017111.8
2014-Sep-17 22:29N 33°37' W 117°55'9701028.2
2014-Sep-17 21:32N 49°18' W 123°08'5407108752.7
2014-Sep-17 21:29N 31°58' E 120°20'6142818929.0
2014-Sep-17 21:29N 33°37' W 117°55'61426514.8
2014-Sep-17 20:32N 31°58' E 120°20'540719466731.1
2014-Sep-17 20:32N 49°18' W 123°08'9703164.8
2014-Sep-17 20:14N 33°37' W 117°55'9701398.6
2014-Sep-17 19:32N 49°18' W 123°08'54076488910.4
2014-Sep-17 19:32N 31°58' E 120°20'54075413.4
2014-Sep-17 18:32N 49°18' W 123°08'540753333.5
2014-Sep-17 18:26N 31°58' E 120°20'54076017.5
2014-Sep-17 17:32N 49°18' W 123°08'54072780964.2
2014-Sep-17 17:32N 31°58' E 120°20'54075418.0
2014-Sep-17 16:32N 49°18' W 123°08'5407100864.0
2014-Sep-17 16:29N 31°58' E 120°20'54075718.8
2014-Sep-17 15:32N 49°18' W 123°08'540799320.1
2014-Sep-17 15:29N 31°58' E 120°20'54075715.4
2014-Sep-17 14:32N 49°18' W 123°08'54071216671.8
2014-Sep-17 14:32N 31°58' E 120°20'54075433.1
2014-Sep-17 13:32N 49°18' W 123°08'5407884853.1
2014-Sep-17 13:32N 31°58' E 120°20'54075443.7
2014-Sep-17 12:32N 49°18' W 123°08'5407720990.7
2014-Sep-17 12:32N 31°58' E 120°20'21988.8
2014-Sep-17 12:31N 32°03' E 119°57'6 6.4
2014-Sep-17 11:33N 31°58' E 120°02'5421330772.0
2014-Sep-17 11:32N 49°18' W 123°08'5407695241.0
2014-Sep-17 11:32N 31°58' E 120°20'1010.1
2014-Sep-17 10:33N 31°56' E 120°09'5417309558.1
2014-Sep-17 10:32N 49°18' W 123°08'5407608335.3
2014-Sep-17 10:32N 31°58' E 120°20'3 3.5
2014-Sep-17 09:33N 31°57' E 120°16'932353.9
2014-Sep-17 09:33N 31°58' E 120°06'5418286854.5
2014-Sep-17 09:32N 49°18' W 123°08'5411124864.9
2014-Sep-17 09:30N 31°57' E 120°17'7 7.1
2014-Sep-17 08:33N 32°01' E 120°23'114283.4
2014-Sep-17 08:33N 31°57' E 120°12'5415336099.2
2014-Sep-17 08:32N 49°18' W 123°08'53955461.5
2014-Sep-17 07:33N 32°04' E 120°30'5395451653.0
2014-Sep-17 07:32N 49°18' W 123°08'54101025075.8
2014-Sep-17 07:32N 31°58' E 120°17'5 4.9
2014-Sep-17 06:33N 31°60' E 120°22'124912.6
2014-Sep-17 06:33N 32°01' E 120°36'5393353004.6
2014-Sep-17 06:32N 49°18' W 123°08'53995495.4
2014-Sep-17 05:33N 32°02' E 120°27'151540.7
2014-Sep-17 05:33N 32°01' E 120°44'5387692659.0
2014-Sep-17 05:32N 49°18' W 123°08'53935492.1
2014-Sep-17 04:33N 32°04' E 120°33'171032.0
2014-Sep-17 04:32N 31°58' E 120°51'53844845765.6
2014-Sep-17 04:32N 49°18' W 123°08'970129288.4
2014-Sep-17 04:32N 33°37' W 117°55'611713038.9
2014-Sep-17 04:04N 32°01' E 120°47'815.6
2014-Sep-17 03:33N 32°00' E 120°38'5392396166.1
2014-Sep-17 03:32N 49°18' W 123°08'5388190166.3
2014-Sep-17 03:31N 31°51' E 120°54'6 6.7
2014-Sep-17 02:33N 31°47' E 120°60'202841.3
2014-Sep-17 02:33N 32°02' E 120°44'5386484780.2
2014-Sep-17 02:32N 49°18' W 123°08'53845432.6
2014-Sep-17 01:33N 31°43' E 121°08'5384646119.5
2014-Sep-17 01:32N 49°18' W 123°08'0 0.0
2014-Sep-17 00:32N 49°18' W 123°08'538376296.0
2014-Sep-17 00:28N 31°38' E 121°15'53835795.2
2014-Sep-16 23:32N 49°18' W 123°08'5383165640.6
2014-Sep-16 23:30N 31°32' E 121°22'4705306.6
2014-Sep-16 23:25N 38°50' E 117°53'477553.2
2014-Sep-16 22:33N 31°27' E 121°28'5382307566.6
2014-Sep-16 22:32N 49°18' W 123°08'538437564.9
2014-Sep-16 22:24N 31°43' E 121°08'5 6.3
2014-Sep-16 21:33N 31°40' E 121°13'2724543.1
2014-Sep-16 21:33N 31°22' E 121°37'5380450415.1
2014-Sep-16 21:32N 49°18' W 123°08'97017028.3
2014-Sep-16 21:29N 33°37' W 117°55'9701028.5
2014-Sep-16 20:32N 49°18' W 123°08'5379122557.5
2014-Sep-16 20:30N 31°16' E 121°46'609597949.6
2014-Sep-16 20:26N 33°37' W 117°55'610385152.8
2014-Sep-16 20:22N 31°24' E 121°30'8261.5
2014-Sep-16 20:20N 31°17' E 121°34'3 4.3
2014-Sep-16 19:33N 31°20' E 121°33'5385775423.8
2014-Sep-16 19:32N 49°18' W 123°08'97017196.2
2014-Sep-16 19:29N 33°37' W 117°55'610419886.6
2014-Sep-16 19:11N 31°31' E 121°24'53828461.5
2014-Sep-16 18:33N 49°18' W 123°08'53854846892.7
2014-Sep-16 18:32N 31°22' E 121°30'61445.5
2014-Sep-16 18:32N 31°28' E 121°27'4 4.5
2014-Sep-16 17:33N 31°25' E 121°30'5383523729.6
2014-Sep-16 17:32N 49°18' W 123°08'5383242229.9
2014-Sep-16 17:31N 31°24' E 121°31'53835505.2
2014-Sep-16 16:32N 49°18' W 123°08'537696759.8
2014-Sep-16 16:29N 30°52' E 122°17'58437.7
2014-Sep-16 16:21N 31°29' E 121°25'6480.1
2014-Sep-16 15:33N 30°47' E 122°20'5378328138.4
2014-Sep-16 15:32N 49°18' W 123°08'5384158881.7
2014-Sep-16 15:30N 31°32' E 121°20'6972.3
2014-Sep-16 14:33N 30°47' E 122°20'5378328135.7
2014-Sep-16 14:33N 49°18' W 123°08'583246862.3
2014-Sep-16 14:25N 24°50' E 118°59'398463.7
2014-Sep-16 13:33N 30°47' E 122°20'40360423.4
2014-Sep-16 13:33N 24°46' E 118°56'5837618068.6
2014-Sep-16 13:33N 49°18' W 123°08'538629510.6
2014-Sep-16 13:22N 31°22' E 121°30'262359.2
2014-Sep-16 13:21N 31°41' E 121°09'53856677.5
2014-Sep-16 12:33N 49°18' W 123°08'5384880947.9
2014-Sep-16 12:32N 30°43' E 122°16'56668.4
2014-Sep-16 12:27N 31°22' E 121°30'273404.8
2014-Sep-16 12:27N 31°42' E 121°08'424.3
2014-Sep-16 12:16N 31°46' E 121°06'91126.6
2014-Sep-16 11:33N 30°35' E 122°12'9127229.9
2014-Sep-16 11:33N 31°45' E 121°05'5385842939.4
2014-Sep-16 11:33N 49°18' W 123°08'538658399.3
2014-Sep-16 11:27N 31°22' E 121°30'53865932.8
2014-Sep-16 10:33N 49°18' W 123°08'5386195843.6
2014-Sep-16 10:31N 31°22' E 121°30'6113661.6
2014-Sep-16 10:31N 30°28' E 122°04'6163.4
2014-Sep-16 09:33N 31°22' E 121°30'5386605892.3
2014-Sep-16 09:33N 49°18' W 123°08'0 0.0
2014-Sep-16 08:33N 49°18' W 123°08'0 0.0
2014-Sep-16 07:33N 49°18' W 123°08'538781150.2
2014-Sep-16 07:29N 31°46' E 120°60'113318.3
2014-Sep-16 07:07N 30°04' E 121°55'54329402.1
2014-Sep-16 06:33N 49°18' W 123°08'54346520888.5
2014-Sep-16 06:33N 29°59' E 121°58'9 9.6
2014-Sep-16 05:33N 29°55' E 122°08'5430368821.6
2014-Sep-16 05:33N 49°18' W 123°08'54415521.8
2014-Sep-16 04:33N 29°46' E 122°04'5441362700.1
2014-Sep-16 04:33N 49°18' W 123°08'54475513.0
2014-Sep-16 03:33N 29°38' E 122°05'5447466895.3
2014-Sep-16 03:33N 49°18' W 123°08'538624635.7
2014-Sep-16 03:19N 31°22' E 121°30'53866892.4
2014-Sep-16 02:33N 49°18' W 123°08'54522453588.5
2014-Sep-16 02:32N 29°30' E 122°06'1171881.3
2014-Sep-16 02:29N 31°22' E 121°30'61508.4
2014-Sep-16 02:22N 32°00' E 120°34'53956612.9
2014-Sep-16 01:33N 49°18' W 123°08'9702720.8
2014-Sep-16 01:11N 33°37' W 117°55'9701507.9
2014-Sep-16 00:33N 49°18' W 123°08'5397607118.4
2014-Sep-16 00:32N 32°01' E 120°31'6131126846.0
2014-Sep-16 00:29N 33°37' W 117°55'9701028.2
2014-Sep-15 23:33N 49°18' W 123°08'53971214243.4
2014-Sep-15 23:32N 32°01' E 120°31'61312758917.8
2014-Sep-15 23:32N 33°37' W 117°55'970976.5
2014-Sep-15 22:33N 49°18' W 123°08'970139632.3
2014-Sep-15 22:32N 33°37' W 117°55'611042383.3
2014-Sep-15 22:24N 31°46' E 121°06'341090.5
2014-Sep-15 22:22N 32°01' E 120°31'0 0.1
2014-Sep-15 21:33N 32°01' E 120°31'389151.2
2014-Sep-15 21:33N 31°42' E 121°10'53841076825.0
2014-Sep-15 21:33N 49°18' W 123°08'97013273.1
2014-Sep-15 21:28N 33°37' W 117°55'651815539.9
2014-Sep-15 21:03N 24°30' E 118°15'588311598.8
2014-Sep-15 20:33N 49°18' W 123°08'5397175025.0
2014-Sep-15 20:31N 32°01' E 120°31'65281.7
2014-Sep-15 20:17N 31°21' E 121°31'53867278.2
2014-Sep-15 19:33N 49°18' W 123°08'5386188242.8
2014-Sep-15 19:31N 31°21' E 121°31'65167.7
2014-Sep-15 19:08N 32°01' E 120°31'533348.6
2014-Sep-15 19:07N 31°32' E 121°23'53839438.9
2014-Sep-15 18:33N 49°18' W 123°08'53821076398.3
2014-Sep-15 18:32N 31°30' E 121°26'10105.7
2014-Sep-15 18:27N 31°21' E 121°31'671516.8
2014-Sep-15 18:24N 32°02' E 120°28'6778.6
2014-Sep-15 17:33N 31°21' E 121°31'5386807875.3
2014-Sep-15 17:33N 49°18' W 123°08'53822421974.6
2014-Sep-15 17:33N 31°26' E 121°30'6626201.7
2014-Sep-15 17:32N 31°60' E 120°23'681154.5
2014-Sep-15 17:29N 31°24' E 121°31'1 0.8
2014-Sep-15 16:33N 31°23' E 121°30'5384430759.5
2014-Sep-15 16:33N 49°18' W 123°08'5386646299.6
2014-Sep-15 16:32N 31°21' E 121°31'346.5
2014-Sep-15 16:28N 31°19' E 121°33'1 1.6
2014-Sep-15 15:33N 31°18' E 121°34'4651.8
2014-Sep-15 15:33N 31°15' E 121°30'53912426041.9
2014-Sep-15 15:33N 49°18' W 123°08'9709138.3
2014-Sep-15 15:26N 33°37' W 117°55'9701085.1
2014-Sep-15 14:33N 49°18' W 123°08'5397132171.3
2014-Sep-15 14:30N 31°10' E 121°28'53975628.4
2014-Sep-15 13:33N 49°18' W 123°08'9706211.4
2014-Sep-15 13:23N 33°37' W 117°55'9701149.0
2014-Sep-15 12:33N 49°18' W 123°08'9702384.4
2014-Sep-15 12:08N 33°37' W 117°55'9701634.3
2014-Sep-15 11:33N 49°18' W 123°08'970151775.1
2014-Sep-15 11:32N 33°37' W 117°55'970976.2
2014-Sep-15 10:33N 49°18' W 123°08'5386103683.0
2014-Sep-15 10:30N 31°22' E 121°30'53865682.5
2014-Sep-15 09:33N 49°18' W 123°08'538656526.2
2014-Sep-15 09:27N 31°21' E 121°30'53865956.5
2014-Sep-15 08:33N 49°18' W 123°08'538626705.9
2014-Sep-15 08:21N 31°21' E 121°30'53866746.2
2014-Sep-15 07:33N 49°18' W 123°08'5386280992.9
2014-Sep-15 07:32N 31°21' E 121°30'53865489.4
2014-Sep-15 06:33N 49°18' W 123°08'538635575.3
2014-Sep-15 06:24N 31°21' E 121°30'53866346.5
2014-Sep-15 05:33N 49°18' W 123°08'538616501.1
2014-Sep-15 05:13N 31°21' E 121°30'53867998.7
2014-Sep-15 04:33N 49°18' W 123°08'970158674.0
2014-Sep-15 04:32N 33°37' W 117°55'6105430915.1
2014-Sep-15 04:32N 31°22' E 121°30'53865500.4
2014-Sep-15 03:33N 49°18' W 123°08'53861491456.1
2014-Sep-15 03:33N 31°22' E 121°30'61051997876.8
2014-Sep-15 03:32N 33°37' W 117°55'970976.2
2014-Sep-15 02:33N 49°18' W 123°08'5386276984.7
2014-Sep-15 02:32N 31°22' E 121°30'610570212.9
2014-Sep-15 02:26N 33°37' W 117°55'61046839.7
2014-Sep-15 01:33N 31°22' E 121°30'53864846984.1
2014-Sep-15 01:33N 49°18' W 123°08'0 0.0
2014-Sep-15 00:33N 49°18' W 123°08'97017028.4
2014-Sep-15 00:29N 33°37' W 117°55'9701027.9
2014-Sep-14 23:33N 49°18' W 123°08'0 0.0
2014-Sep-14 22:33N 49°18' W 123°08'0 0.0
2014-Sep-14 21:33N 49°18' W 123°08'9703253.3
2014-Sep-14 21:15N 33°37' W 117°55'0 0.0
2014-Sep-14 20:33N 33°37' W 117°55'970498689.7
2014-Sep-14 20:33N 49°18' W 123°08'0 0.0
2014-Sep-14 19:33N 49°18' W 123°08'9709138.3
2014-Sep-14 19:27N 33°37' W 117°55'9701085.1
2014-Sep-14 18:33N 49°18' W 123°08'97017281.3
2014-Sep-14 18:30N 33°37' W 117°55'610433095.7
2014-Sep-14 18:18N 31°17' E 121°34'53877096.2
2014-Sep-14 17:33N 49°18' W 123°08'53851292435.3
2014-Sep-14 17:33N 31°21' E 121°32'6103116255.0
2014-Sep-14 17:30N 33°37' W 117°55'61036531.4
2014-Sep-14 16:33N 31°23' E 121°30'5384646088.8
2014-Sep-14 16:33N 49°18' W 123°08'0 0.0
2014-Sep-14 15:27N 49°18' W 123°08'9709067.1
2014-Sep-14 15:21N 33°37' W 117°55'9701222.3
2014-Sep-14 14:33N 49°18' W 123°08'97017196.2
2014-Sep-14 14:30N 33°37' W 117°55'9701027.9
2014-Sep-14 13:33N 49°18' W 123°08'9709090.6
2014-Sep-14 13:27N 33°37' W 117°55'9701086.1
2014-Sep-14 12:33N 49°18' W 123°08'5386171580.2
2014-Sep-14 12:31N 31°21' E 121°30'53865558.6
2014-Sep-14 11:33N 49°18' W 123°08'5386387771.3
2014-Sep-14 11:32N 31°21' E 121°30'6104142699.5
2014-Sep-14 11:30N 33°37' W 117°55'61406560.9
2014-Sep-14 10:33N 31°60' E 120°21'5405694935.1
2014-Sep-14 10:33N 49°18' W 123°08'538697430.2
2014-Sep-14 10:30N 31°21' E 121°30'803689.9
2014-Sep-14 10:28N 31°58' E 120°07'356389.7
2014-Sep-14 09:33N 26°03' E 119°30'33657560.6
2014-Sep-14 09:33N 31°21' E 121°30'53863231457.6
2014-Sep-14 09:33N 49°18' W 123°08'5398498291.3
2014-Sep-14 09:32N 32°03' E 120°27'131462.8
2014-Sep-14 09:32N 31°57' E 120°13'360370.1
2014-Sep-14 08:33N 25°59' E 119°27'5752690220.3
2014-Sep-14 08:33N 49°18' W 123°08'54081145321.7
2014-Sep-14 08:33N 31°58' E 120°19'13462.2
2014-Sep-14 08:31N 32°01' E 120°35'622899.9
2014-Sep-14 08:30N 31°21' E 121°30'340363.5
2014-Sep-14 07:34N 25°59' E 119°27'5752714020.4
2014-Sep-14 07:33N 49°18' W 123°08'540847255.3
2014-Sep-14 07:26N 31°57' E 120°20'70239.6
2014-Sep-14 07:09N 31°21' E 121°30'340580.9
2014-Sep-14 06:33N 25°59' E 119°27'5752862775.4
2014-Sep-14 06:33N 49°18' W 123°08'540882847.8
2014-Sep-14 06:29N 31°57' E 120°20'70642.0
2014-Sep-14 06:23N 31°21' E 121°30'340415.2
2014-Sep-14 05:33N 25°59' E 119°27'5752766911.5
2014-Sep-14 05:33N 49°18' W 123°08'540883558.8
2014-Sep-14 05:29N 31°57' E 120°20'361389.7
2014-Sep-14 04:33N 25°59' E 119°27'5752739521.8
2014-Sep-14 04:33N 49°18' W 123°08'5386387771.7
2014-Sep-14 04:32N 31°21' E 121°30'701369.8
2014-Sep-14 04:29N 31°57' E 120°20'54085791.0
2014-Sep-14 03:33N 49°18' W 123°08'57521294163.1
2014-Sep-14 03:33N 25°59' E 119°27'3402004.4
2014-Sep-14 03:23N 31°21' E 121°30'340412.5
2014-Sep-14 02:33N 25°59' E 119°27'57523451101.7
2014-Sep-14 02:33N 49°18' W 123°08'97017111.8
2014-Sep-14 02:30N 33°37' W 117°55'6104845219.2
2014-Sep-14 02:29N 31°21' E 121°30'340366.3
2014-Sep-14 01:34N 25°59' E 119°27'5752766911.8
2014-Sep-14 01:33N 49°18' W 123°08'5386334285.8
2014-Sep-14 01:32N 31°21' E 121°30'70463.3
2014-Sep-14 01:23N 31°57' E 120°20'614325713.1
2014-Sep-14 01:09N 33°37' W 117°55'970269.9
2014-Sep-13 21:33N 49°18' W 123°08'5752363274.2
2014-Sep-13 21:32N 25°59' E 119°27'36168477.3
2014-Sep-13 21:32N 31°57' E 120°20'361371.5
2014-Sep-13 20:33N 25°59' E 119°27'5752900288.2
2014-Sep-13 20:33N 49°18' W 123°08'970166229.9
2014-Sep-13 20:33N 33°37' W 117°55'611114359.7
2014-Sep-13 20:07N 31°44' E 121°07'356633.0
2014-Sep-13 19:33N 25°59' E 119°27'5752986029.9
2014-Sep-13 19:33N 49°18' W 123°08'970134262.6
2014-Sep-13 19:33N 33°37' W 117°55'61093665540.1
2014-Sep-13 19:33N 31°41' E 121°11'47850.1
2014-Sep-13 19:29N 31°58' E 120°20'362386.1
2014-Sep-13 18:33N 25°59' E 119°27'575220706628.7
2014-Sep-13 18:33N 49°18' W 123°08'97064645.0
2014-Sep-13 18:32N 33°37' W 117°55'6142124926.7
2014-Sep-13 18:29N 31°58' E 120°20'70194.9
2014-Sep-13 18:08N 31°21' E 121°30'340597.3
2014-Sep-13 17:33N 25°59' E 119°27'34055661.5
2014-Sep-13 17:33N 31°21' E 121°30'704956.5
2014-Sep-13 17:32N 31°58' E 120°20'6142145473.6
2014-Sep-13 17:30N 33°37' W 117°55'64026828.8
2014-Sep-13 16:33N 25°59' E 119°27'5752102508.0
2014-Sep-13 16:30N 49°18' W 123°08'540847251.6
2014-Sep-13 16:23N 31°58' E 120°20'701163.6
2014-Sep-13 16:20N 31°21' E 121°30'340439.1
2014-Sep-13 15:33N 25°59' E 119°27'5752115036.7
2014-Sep-13 15:30N 49°18' W 123°08'53866462860.9
2014-Sep-13 15:30N 31°21' E 121°30'70608.4
2014-Sep-13 15:23N 31°58' E 120°20'70241.3
2014-Sep-13 15:06N 31°24' E 121°32'343636.7
2014-Sep-13 14:33N 25°59' E 119°27'57521035330.5
2014-Sep-13 14:33N 49°18' W 123°08'5386328620.0
2014-Sep-13 14:32N 31°21' E 121°30'701403.5
2014-Sep-13 14:29N 31°58' E 120°20'362389.9
2014-Sep-13 13:33N 25°59' E 119°27'57521089821.6
2014-Sep-13 13:33N 49°18' W 123°08'5408324464.1
2014-Sep-13 13:32N 31°58' E 120°20'70126317.3
2014-Sep-13 13:32N 31°21' E 121°30'340347.9
2014-Sep-13 12:33N 25°59' E 119°27'57521089821.6
2014-Sep-13 12:33N 49°18' W 123°08'5408313997.2
2014-Sep-13 12:32N 31°58' E 120°20'707894.8
2014-Sep-13 12:32N 31°21' E 121°30'340351.2
2014-Sep-13 11:33N 25°59' E 119°27'57521218035.9
2014-Sep-13 11:33N 49°18' W 123°08'5408286294.5
2014-Sep-13 11:32N 31°58' E 120°20'701459.6
2014-Sep-13 11:29N 31°21' E 121°30'340366.5
2014-Sep-13 10:33N 25°59' E 119°27'340136077.5
2014-Sep-13 10:33N 31°21' E 121°30'53862423570.6
2014-Sep-13 10:33N 49°18' W 123°08'541124657.7
2014-Sep-13 10:20N 31°57' E 120°17'360464.5
2014-Sep-13 09:33N 25°59' E 119°27'57521294163.1
2014-Sep-13 09:33N 49°18' W 123°08'538671809.6
2014-Sep-13 09:29N 31°21' E 121°30'53446.2
2014-Sep-13 09:29N 31°20' E 121°25'338367.5
2014-Sep-13 08:33N 25°59' E 119°27'57521294163.1
2014-Sep-13 08:33N 49°18' W 123°08'5386173112.7
2014-Sep-13 08:31N 31°21' E 121°30'340352.8
2014-Sep-13 07:34N 25°59' E 119°27'57521218034.8
2014-Sep-13 07:33N 49°18' W 123°08'538653559.6
2014-Sep-13 07:27N 31°21' E 121°30'340379.9
2014-Sep-13 06:33N 25°59' E 119°27'57521882419.8
2014-Sep-13 06:33N 49°18' W 123°08'538665281.5
2014-Sep-13 06:28N 31°21' E 121°30'527.2
2014-Sep-13 06:18N 31°20' E 121°25'53917273.8
2014-Sep-13 05:33N 49°18' W 123°08'57525176648.0
2014-Sep-13 05:33N 25°59' E 119°27'34037106.4
2014-Sep-13 05:33N 31°21' E 121°30'5109.5
2014-Sep-13 05:30N 31°20' E 121°25'338357.9
2014-Sep-13 04:33N 25°59' E 119°27'57521725551.5
2014-Sep-13 04:33N 49°18' W 123°08'5386152671.4
2014-Sep-13 04:31N 31°22' E 121°29'12265.7
2014-Sep-13 04:31N 31°21' E 121°30'884.2
2014-Sep-13 04:26N 31°29' E 121°27'53826162.5
2014-Sep-13 03:33N 49°18' W 123°08'57522300734.5
2014-Sep-13 03:33N 25°59' E 119°27'3405167.2
2014-Sep-13 03:29N 31°21' E 121°30'340366.3
2014-Sep-13 02:33N 25°59' E 119°27'57521592816.2
2014-Sep-13 02:33N 49°18' W 123°08'5382587104.6
2014-Sep-13 02:33N 31°25' E 121°31'469.4
2014-Sep-13 02:29N 31°21' E 121°30'340365.9
2014-Sep-13 01:33N 25°59' E 119°27'57521882420.8
2014-Sep-13 01:33N 49°18' W 123°08'53864846992.0
2014-Sep-13 01:33N 31°21' E 121°31'132.1
2014-Sep-13 01:32N 31°21' E 121°30'340350.3
2014-Sep-13 00:33N 25°59' E 119°27'340174945.2
2014-Sep-13 00:33N 31°21' E 121°30'53863231460.4
2014-Sep-13 00:33N 49°18' W 123°08'9702086.6
2014-Sep-13 00:05N 33°37' W 117°55'640212041.4
2014-Sep-12 23:33N 25°59' E 119°27'57521725552.4
2014-Sep-12 23:33N 49°18' W 123°08'538671545.2
2014-Sep-12 23:29N 31°21' E 121°30'610446460.7
2014-Sep-12 23:21N 33°37' W 117°55'64028106.7
2014-Sep-12 22:34N 25°59' E 119°27'57522070661.0
2014-Sep-12 22:33N 49°18' W 123°08'5386195846.1
2014-Sep-12 22:32N 31°21' E 121°30'610412724.9
2014-Sep-12 22:03N 33°37' W 117°55'640213050.5
2014-Sep-12 21:33N 25°59' E 119°27'57522070661.0
2014-Sep-12 21:33N 49°18' W 123°08'970151774.2
2014-Sep-12 21:33N 33°37' W 117°55'6104278176.2
2014-Sep-12 21:32N 31°21' E 121°30'340351.1
2014-Sep-12 20:33N 25°59' E 119°27'57522070662.9
2014-Sep-12 20:33N 49°18' W 123°08'5386276982.1
2014-Sep-12 20:32N 31°21' E 121°30'610464256.8
2014-Sep-12 20:26N 33°37' W 117°55'64027252.1
2014-Sep-12 19:33N 25°59' E 119°27'57522300734.5
2014-Sep-12 19:33N 49°18' W 123°08'97065864.7
2014-Sep-12 19:32N 33°37' W 117°55'610417736.6
2014-Sep-12 19:12N 31°21' E 121°30'340532.9
2014-Sep-12 18:33N 25°59' E 119°27'57522070662.9
2014-Sep-12 18:33N 49°18' W 123°08'97067130.9
2014-Sep-12 18:32N 33°37' W 117°55'6104301036.6
2014-Sep-12 18:31N 31°21' E 121°30'53865584.3
2014-Sep-12 17:33N 49°18' W 123°08'53861615716.9
2014-Sep-12 17:33N 31°21' E 121°30'340612276.8
2014-Sep-12 17:33N 25°59' E 119°27'640239668.2
2014-Sep-12 17:23N 33°37' W 117°55'64027687.5
2014-Sep-12 16:33N 25°59' E 119°27'57522588326.3
2014-Sep-12 16:33N 49°18' W 123°08'97064645.0
2014-Sep-12 16:32N 33°37' W 117°55'6104197979.0
2014-Sep-12 16:31N 31°21' E 121°30'340357.3
2014-Sep-12 15:33N 25°59' E 119°27'57522300734.5
2014-Sep-12 15:33N 49°18' W 123°08'5386510230.6
2014-Sep-12 15:33N 31°21' E 121°30'61041465061.2
2014-Sep-12 15:32N 33°37' W 117°55'64026514.2
2014-Sep-12 14:33N 25°59' E 119°27'57522588326.3
2014-Sep-12 14:33N 49°18' W 123°08'97065864.3
2014-Sep-12 14:32N 33°37' W 117°55'970984.4
2014-Sep-12 13:33N 49°18' W 123°08'57521725551.5
2014-Sep-12 13:33N 25°59' E 119°27'0 0.0
2014-Sep-12 12:34N 25°59' E 119°27'57522588326.3
2014-Sep-12 12:33N 49°18' W 123°08'538626559.9
2014-Sep-12 12:21N 31°21' E 121°30'53866758.0
2014-Sep-12 11:33N 49°18' W 123°08'5752591616.9
2014-Sep-12 11:33N 25°59' E 119°27'34094198.1
2014-Sep-12 11:33N 31°21' E 121°30'340345.2
2014-Sep-12 10:33N 25°59' E 119°27'57525176652.6
2014-Sep-12 10:33N 49°18' W 123°08'5386121179.0
2014-Sep-12 10:31N 31°21' E 121°30'28109.5
2014-Sep-12 10:15N 31°42' E 121°08'354506.3
2014-Sep-12 09:33N 25°59' E 119°27'57525176652.6
2014-Sep-12 09:33N 49°18' W 123°08'538618878.9
2014-Sep-12 09:16N 31°21' E 121°30'340476.6
2014-Sep-12 08:33N 25°59' E 119°27'575210353305.2
2014-Sep-12 08:33N 49°18' W 123°08'5386380169.3
2014-Sep-12 08:33N 31°21' E 121°30'61047325272.4
2014-Sep-12 08:33N 33°37' W 117°55'6528199158.0
2014-Sep-12 08:31N 24°22' E 118°10'4695482.0
2014-Sep-12 08:25N 31°44' E 121°04'356411.4
2014-Sep-12 07:34N 25°59' E 119°27'57523451101.7
2014-Sep-12 07:33N 49°18' W 123°08'5386158921.8
2014-Sep-12 07:31N 31°21' E 121°30'610475517.4
2014-Sep-12 07:27N 33°37' W 117°55'64027238.0
2014-Sep-12 06:33N 25°59' E 119°27'575210352851.7
2014-Sep-12 06:33N 49°18' W 123°08'5386472890.1
2014-Sep-12 06:33N 31°21' E 121°30'61041690430.1
2014-Sep-12 06:33N 33°37' W 117°55'970984.4
2014-Sep-12 05:33N 49°18' W 123°08'5742210939.0
2014-Sep-12 05:32N 26°06' E 119°32'3325781.4
2014-Sep-12 05:28N 31°21' E 121°30'53865886.0
2014-Sep-12 04:33N 49°18' W 123°08'970145450.3
2014-Sep-12 04:33N 33°37' W 117°55'6104879023.7
2014-Sep-12 04:33N 31°21' E 121°30'53865467.7
2014-Sep-12 03:34N 49°18' W 123°08'5386692456.4
2014-Sep-12 03:33N 31°21' E 121°30'610421975918.6
2014-Sep-12 03:33N 33°37' W 117°55'970976.4
2014-Sep-12 02:33N 49°18' W 123°08'5386807860.6
2014-Sep-12 02:33N 31°21' E 121°30'32205.9
2014-Sep-12 02:24N 31°44' E 121°05'53866420.1
2014-Sep-12 01:33N 49°18' W 123°08'970158672.1
2014-Sep-12 01:33N 33°37' W 117°55'647518845.4
2014-Sep-12 01:12N 24°45' E 118°54'58418993.1
2014-Sep-12 00:34N 49°18' W 123°08'5836173641.7
2014-Sep-12 00:32N 24°47' E 118°56'6472202590.4
2014-Sep-12 00:30N 33°37' W 117°55'610425317.8
2014-Sep-12 00:15N 31°21' E 121°30'53867761.7
2014-Sep-11 23:33N 49°18' W 123°08'5386646289.1
2014-Sep-11 23:33N 31°21' E 121°30'610439033.5
2014-Sep-11 23:24N 33°37' W 117°55'9701162.1
2014-Sep-11 22:34N 49°18' W 123°08'5386265598.0
2014-Sep-11 22:32N 31°21' E 121°30'6104135653.3
2014-Sep-11 22:30N 33°37' W 117°55'9701037.1
2014-Sep-11 21:34N 49°18' W 123°08'5386380170.0
2014-Sep-11 21:33N 31°21' E 121°30'610410987927.1
2014-Sep-11 21:33N 33°37' W 117°55'970983.9
2014-Sep-11 20:34N 49°18' W 123°08'5386510228.2
2014-Sep-11 20:33N 31°21' E 121°30'61041569703.9
2014-Sep-11 20:33N 33°37' W 117°55'970984.2
2014-Sep-11 19:34N 49°18' W 123°08'538656198.9
2014-Sep-11 19:28N 31°21' E 121°30'53865716.0
2014-Sep-11 18:31N 49°18' W 123°08'538642425.6
2014-Sep-11 18:24N 31°21' E 121°30'6104123458.4
2014-Sep-11 18:21N 33°37' W 117°55'0 0.0
2014-Sep-11 17:33N 33°37' W 117°55'6104137347.5
2014-Sep-11 17:30N 31°21' E 121°30'5386131894.6
2014-Sep-11 17:28N 49°18' W 123°08'9701060.4
2014-Sep-11 16:33N 33°37' W 117°55'97027705.0
2014-Sep-11 16:31N 49°18' W 123°08'53861140500.7
2014-Sep-11 16:30N 31°21' E 121°30'2 1.8
2014-Sep-11 15:33N 31°21' E 121°32'6103535907.6
2014-Sep-11 15:33N 33°37' W 117°55'6104343368.2
2014-Sep-11 15:32N 31°21' E 121°30'5386302944.7
2014-Sep-11 15:31N 49°18' W 123°08'539925506.6
2014-Sep-11 15:18N 32°02' E 120°27'6688.3
2014-Sep-11 14:33N 31°23' E 121°30'61031569421.2
2014-Sep-11 14:33N 33°37' W 117°55'97011407.9
2014-Sep-11 14:28N 49°18' W 123°08'53835849.4
2014-Sep-11 13:32N 31°26' E 121°29'5213.4
2014-Sep-11 13:31N 31°21' E 121°30'5386668573.6
2014-Sep-11 13:31N 49°18' W 123°08'0 0.0
2014-Sep-11 12:31N 49°18' W 123°08'5386131004.2
2014-Sep-11 12:28N 31°21' E 121°30'53865339.7
2014-Sep-11 11:28N 49°18' W 123°08'5386646287.2
2014-Sep-11 11:27N 31°21' E 121°30'0 0.1
2014-Sep-11 10:33N 31°22' E 121°30'24774.7
2014-Sep-11 10:31N 31°40' E 121°12'5384538409.2
2014-Sep-11 10:31N 49°18' W 123°08'53855543.2
2014-Sep-11 09:32N 31°44' E 121°06'5385190044.9
2014-Sep-11 09:31N 49°18' W 123°08'97064644.6
2014-Sep-11 09:30N 33°37' W 117°55'970985.0
2014-Sep-11 08:31N 49°18' W 123°08'9704504.3
2014-Sep-11 08:18N 33°37' W 117°55'9701235.2
2014-Sep-11 07:31N 49°18' W 123°08'538614655.1
2014-Sep-11 07:09N 31°21' E 121°30'0 0.0
2014-Sep-11 06:33N 31°21' E 121°30'5386165715.9
2014-Sep-11 06:31N 49°18' W 123°08'53865455.5
2014-Sep-11 05:31N 31°21' E 121°30'5386421494.4
2014-Sep-11 05:31N 49°18' W 123°08'0 0.0
2014-Sep-11 04:28N 49°18' W 123°08'5386137508.8
2014-Sep-11 04:25N 31°21' E 121°30'53865914.8
2014-Sep-11 03:31N 49°18' W 123°08'538633719.5
2014-Sep-11 03:21N 31°22' E 121°30'53866411.6
2014-Sep-11 02:31N 49°18' W 123°08'538682156.0
2014-Sep-11 02:27N 31°22' E 121°30'0 0.0
2014-Sep-11 01:32N 31°22' E 121°30'5386217851.8
2014-Sep-11 01:31N 49°18' W 123°08'0 0.0
2014-Sep-11 00:31N 49°18' W 123°08'53866462943.3
2014-Sep-11 00:31N 31°22' E 121°30'53865390.3
2014-Sep-10 23:31N 49°18' W 123°08'538335886.7
2014-Sep-10 23:22N 31°24' E 121°31'6 7.1
2014-Sep-10 22:33N 31°28' E 121°27'5383135516.3
2014-Sep-10 22:31N 49°18' W 123°08'9 9.4
2014-Sep-10 21:33N 49°18' W 122°54'9266.8
2014-Sep-10 21:31N 49°18' W 123°08'9 9.3
2014-Sep-10 20:32N 49°18' W 122°54'9355.3
2014-Sep-10 20:31N 49°18' W 123°08'54125652.0
2014-Sep-10 19:33N 31°57' E 120°16'5422673077.4
2014-Sep-10 19:33N 49°17' W 122°54'9254.8
2014-Sep-10 19:31N 49°18' W 123°08'0 0.0
2014-Sep-10 18:31N 49°18' W 123°08'9277.0
2014-Sep-10 18:29N 49°17' W 122°54'9 9.3
2014-Sep-10 17:31N 49°18' W 123°08'9160.1
2014-Sep-10 17:27N 49°18' W 122°54'9 9.7
2014-Sep-10 16:31N 49°18' W 123°08'91415.1
2014-Sep-10 16:30N 49°17' W 122°54'0 0.1
2014-Sep-10 15:33N 49°18' W 122°54'9205.2
2014-Sep-10 15:31N 49°18' W 123°08'0 0.0
2014-Sep-10 14:31N 49°18' W 123°08'0 0.0
2014-Sep-10 13:31N 49°18' W 123°08'0 0.0
2014-Sep-10 12:31N 49°18' W 123°08'0 0.0
2014-Sep-10 11:31N 49°18' W 123°08'0 0.0
2014-Sep-10 10:28N 49°18' W 123°08'0 0.0
2014-Sep-10 09:31N 49°18' W 123°08'517294037.8
2014-Sep-10 09:28N 38°53' E 117°44'602537724.0
2014-Sep-10 09:18N 33°37' W 117°55'61398237.6
2014-Sep-10 08:33N 31°60' E 120°22'464830.4
2014-Sep-10 08:33N 31°41' E 121°11'5384186375.5
2014-Sep-10 08:31N 49°18' W 123°08'9704486.9
2014-Sep-10 08:18N 33°37' W 117°55'9701235.3
2014-Sep-10 07:31N 49°18' W 123°08'539723100.4
2014-Sep-10 07:17N 32°02' E 120°30'5 6.3
2014-Sep-10 06:33N 32°01' E 120°35'31831.0
2014-Sep-10 06:31N 31°44' E 121°05'5385923188.3
2014-Sep-10 06:31N 49°18' W 123°08'0 0.0
2014-Sep-10 05:31N 49°18' W 123°08'5385298261.1
2014-Sep-10 05:30N 31°44' E 121°05'53855485.8
2014-Sep-10 04:31N 49°18' W 123°08'538534743.8
2014-Sep-10 04:22N 31°44' E 121°05'53856371.0
2014-Sep-10 03:31N 49°18' W 123°08'5385220304.3
2014-Sep-10 03:29N 31°44' E 121°05'611232121.4
2014-Sep-10 03:18N 33°37' W 117°55'9701235.7
2014-Sep-10 02:31N 49°18' W 123°08'9702335.0
2014-Sep-10 02:06N 33°37' W 117°55'9701659.9
2014-Sep-10 01:31N 49°18' W 123°08'0 0.0
2014-Sep-10 00:31N 49°18' W 123°08'0 0.0
2014-Sep-09 23:31N 49°18' W 123°08'0 0.0
2014-Sep-09 22:31N 49°18' W 123°08'53925446.9
2014-Sep-09 21:32N 31°60' E 120°38'5392539244.8
2014-Sep-09 21:31N 49°18' W 123°08'53965490.2
2014-Sep-09 20:32N 32°01' E 120°33'5396308321.7
2014-Sep-09 20:31N 49°18' W 123°08'544028339.2
2014-Sep-09 20:19N 29°47' E 122°04'158205.6
2014-Sep-09 19:33N 32°02' E 120°29'5398132193.0
2014-Sep-09 19:31N 49°18' W 123°08'543220958.6
2014-Sep-09 19:15N 29°55' E 122°06'153216.6
2014-Sep-09 18:33N 32°01' E 120°25'5402153118.8
2014-Sep-09 18:31N 49°18' W 123°08'54075609.3
2014-Sep-09 17:33N 31°59' E 120°20'5407152064.6
2014-Sep-09 17:31N 49°18' W 123°08'538412871.0
2014-Sep-09 17:06N 31°43' E 121°08'53849261.2
2014-Sep-09 16:31N 49°18' W 123°08'5415146566.4
2014-Sep-09 16:29N 31°56' E 120°13'54155622.5
2014-Sep-09 15:31N 49°18' W 123°08'0 0.0
2014-Sep-09 14:31N 49°18' W 123°08'0 0.0
2014-Sep-09 13:31N 49°18' W 123°08'0 0.0
2014-Sep-09 12:31N 49°18' W 123°08'53865600.7
2014-Sep-09 11:33N 31°22' E 121°29'5386141531.1
2014-Sep-09 11:31N 49°18' W 123°08'0 0.0
2014-Sep-09 10:31N 49°18' W 123°08'0 0.0
2014-Sep-09 09:31N 49°18' W 123°08'0 0.0
2014-Sep-09 08:31N 49°18' W 123°08'0 0.0
2014-Sep-09 07:31N 49°18' W 123°08'0 0.0
2014-Sep-09 06:31N 49°18' W 123°08'0 0.0
2014-Sep-09 05:31N 49°18' W 123°08'538012204.4
2014-Sep-09 05:05N 31°21' E 121°38'3 5.2
2014-Sep-09 04:32N 31°23' E 121°35'5381691867.3
2014-Sep-09 04:31N 49°18' W 123°08'0 0.0
2014-Sep-09 03:28N 49°18' W 123°08'538333068.2
2014-Sep-09 03:18N 31°26' E 121°30'53836835.3
2014-Sep-09 02:31N 49°18' W 123°08'538327257.1
2014-Sep-09 02:19N 31°28' E 121°26'7159.7
2014-Sep-09 02:17N 31°22' E 121°28'53887107.2
2014-Sep-09 01:31N 49°18' W 123°08'538449955.1
2014-Sep-09 01:25N 31°23' E 121°30'53846038.2
2014-Sep-09 00:31N 49°18' W 123°08'538450343.9
2014-Sep-09 00:25N 31°40' E 121°12'53846025.0
2014-Sep-08 23:31N 49°18' W 123°08'5386119683.6
2014-Sep-08 23:28N 31°46' E 121°03'53865647.8
2014-Sep-08 22:31N 49°18' W 123°08'0 0.0
2014-Sep-08 21:31N 49°18' W 123°08'0 0.0
2014-Sep-08 20:31N 49°18' W 123°08'5436191864.7
2014-Sep-08 20:29N 29°34' E 122°23'145486.7
2014-Sep-08 20:12N 31°43' E 121°07'138210.6
2014-Sep-08 19:32N 29°44' E 122°28'5424305110.7
2014-Sep-08 19:31N 49°18' W 123°08'539324389.9
2014-Sep-08 19:18N 31°60' E 120°38'160212.9
2014-Sep-08 18:33N 29°54' E 122°33'5423976146.8
2014-Sep-08 18:33N 49°18' W 122°53'10440.9
2014-Sep-08 18:31N 49°18' W 123°08'539467187.5
2014-Sep-08 18:26N 32°03' E 120°33'6 6.4
2014-Sep-08 17:33N 32°03' E 120°26'5409486846.6
2014-Sep-08 17:33N 49°18' W 122°53'10414.4
2014-Sep-08 17:31N 49°18' W 123°08'5401234259.1
2014-Sep-08 17:30N 30°05' E 122°35'126410.3
2014-Sep-08 17:11N 31°46' E 121°06'5 7.3
2014-Sep-08 16:32N 31°42' E 121°09'53841020145.2
2014-Sep-08 16:31N 49°18' W 123°08'53855526.1
2014-Sep-08 15:33N 30°23' E 122°37'  
Track history (hours):
 
Tides and Currents Weather Stations Pressure Air Temp Water Temp Dewpoint Dewpoint Depression Visibility Wind Speed Wind Dir Waves Ship Positions

Paulistana II

Last reported at 2014-Sep-18 15:32 UTC. Time now 2014-Sep-18 15:44 UTC.
Position N 49°18' W 123°08'.

Length 6 m.

Type: Pollution control. MMSI: 316014038.

Date/timePositionNaut miles runAvg speedWind from/ knotsBaromVisibWave heightAir tempDewpointWater temp
2014-Sep-18 15:32N 49°18' W 123°08'539147799.4
2014-Sep-18 15:25N 31°20' E 121°25'53916083.6
2014-Sep-18 14:32N 49°18' W 123°08'0 0.0
2014-Sep-18 13:32N 49°18' W 123°08'0 0.0
2014-Sep-18 12:32N 49°18' W 123°08'5384174620.4
2014-Sep-18 12:30N 31°44' E 121°07'53845557.0
2014-Sep-18 11:32N 49°18' W 123°08'0 0.0
2014-Sep-18 10:32N 49°18' W 123°08'517217240.8
2014-Sep-18 10:14N 38°48' E 117°50'51727394.8
2014-Sep-18 09:32N 49°18' W 123°08'538296401.0
2014-Sep-18 09:29N 31°31' E 121°24'10353.9
2014-Sep-18 09:27N 31°21' E 121°26'7 8.2
2014-Sep-18 08:34N 31°28' E 121°28'5382233430.9
2014-Sep-18 08:32N 49°18' W 123°08'538635060.0
2014-Sep-18 08:23N 31°22' E 121°30'3 3.7
2014-Sep-18 07:33N 31°25' E 121°31'5382538202.4
2014-Sep-18 07:32N 49°18' W 123°08'0 0.0
2014-Sep-18 06:32N 49°18' W 123°08'5385334259.4
2014-Sep-18 06:31N 31°21' E 121°32'53855473.5
2014-Sep-18 05:32N 49°18' W 123°08'0 0.0
2014-Sep-18 04:32N 49°18' W 123°08'0 0.0
2014-Sep-18 03:26N 49°18' W 123°08'0 0.0
2014-Sep-18 02:32N 49°18' W 123°08'540713689.7
2014-Sep-18 02:08N 31°58' E 120°20'54078950.2
2014-Sep-18 01:32N 49°18' W 123°08'97016863.9
2014-Sep-18 01:29N 33°37' W 117°55'6142156816.3
2014-Sep-18 01:26N 31°58' E 120°20'54075984.2
2014-Sep-18 00:32N 49°18' W 123°08'970151774.2
2014-Sep-18 00:32N 33°37' W 117°55'614232231.9
2014-Sep-18 00:20N 31°58' E 120°20'0 0.0
2014-Sep-17 23:32N 31°58' E 120°20'6142713260.8
2014-Sep-17 23:32N 33°37' W 117°55'97021954.8
2014-Sep-17 23:29N 49°18' W 123°08'54075702.0
2014-Sep-17 22:32N 31°58' E 120°20'54074866682.8
2014-Sep-17 22:32N 49°18' W 123°08'97017111.8
2014-Sep-17 22:29N 33°37' W 117°55'9701028.2
2014-Sep-17 21:32N 49°18' W 123°08'5407108752.7
2014-Sep-17 21:29N 31°58' E 120°20'6142818929.0
2014-Sep-17 21:29N 33°37' W 117°55'61426514.8
2014-Sep-17 20:32N 31°58' E 120°20'540719466731.1
2014-Sep-17 20:32N 49°18' W 123°08'9703164.8
2014-Sep-17 20:14N 33°37' W 117°55'9701398.6
2014-Sep-17 19:32N 49°18' W 123°08'54076488910.4
2014-Sep-17 19:32N 31°58' E 120°20'54075413.4
2014-Sep-17 18:32N 49°18' W 123°08'540753333.5
2014-Sep-17 18:26N 31°58' E 120°20'54076017.5
2014-Sep-17 17:32N 49°18' W 123°08'54072780964.2
2014-Sep-17 17:32N 31°58' E 120°20'54075418.0
2014-Sep-17 16:32N 49°18' W 123°08'5407100864.0
2014-Sep-17 16:29N 31°58' E 120°20'54075718.8
2014-Sep-17 15:32N 49°18' W 123°08'540799320.1
2014-Sep-17 15:29N 31°58' E 120°20'54075715.4
2014-Sep-17 14:32N 49°18' W 123°08'54071216671.8
2014-Sep-17 14:32N 31°58' E 120°20'54075433.1
2014-Sep-17 13:32N 49°18' W 123°08'5407884853.1
2014-Sep-17 13:32N 31°58' E 120°20'54075443.7
2014-Sep-17 12:32N 49°18' W 123°08'5407720990.7
2014-Sep-17 12:32N 31°58' E 120°20'21988.8
2014-Sep-17 12:31N 32°03' E 119°57'6 6.4
2014-Sep-17 11:33N 31°58' E 120°02'5421330772.0
2014-Sep-17 11:32N 49°18' W 123°08'5407695241.0
2014-Sep-17 11:32N 31°58' E 120°20'1010.1
2014-Sep-17 10:33N 31°56' E 120°09'5417309558.1
2014-Sep-17 10:32N 49°18' W 123°08'5407608335.3
2014-Sep-17 10:32N 31°58' E 120°20'3 3.5
2014-Sep-17 09:33N 31°57' E 120°16'932353.9
2014-Sep-17 09:33N 31°58' E 120°06'5418286854.5
2014-Sep-17 09:32N 49°18' W 123°08'5411124864.9
2014-Sep-17 09:30N 31°57' E 120°17'7 7.1
2014-Sep-17 08:33N 32°01' E 120°23'114283.4
2014-Sep-17 08:33N 31°57' E 120°12'5415336099.2
2014-Sep-17 08:32N 49°18' W 123°08'53955461.5
2014-Sep-17 07:33N 32°04' E 120°30'5395451653.0
2014-Sep-17 07:32N 49°18' W 123°08'54101025075.8
2014-Sep-17 07:32N 31°58' E 120°17'5 4.9
2014-Sep-17 06:33N 31°60' E 120°22'124912.6
2014-Sep-17 06:33N 32°01' E 120°36'5393353004.6
2014-Sep-17 06:32N 49°18' W 123°08'53995495.4
2014-Sep-17 05:33N 32°02' E 120°27'151540.7
2014-Sep-17 05:33N 32°01' E 120°44'5387692659.0
2014-Sep-17 05:32N 49°18' W 123°08'53935492.1
2014-Sep-17 04:33N 32°04' E 120°33'171032.0
2014-Sep-17 04:32N 31°58' E 120°51'53844845765.6
2014-Sep-17 04:32N 49°18' W 123°08'970129288.4
2014-Sep-17 04:32N 33°37' W 117°55'611713038.9
2014-Sep-17 04:04N 32°01' E 120°47'815.6
2014-Sep-17 03:33N 32°00' E 120°38'5392396166.1
2014-Sep-17 03:32N 49°18' W 123°08'5388190166.3
2014-Sep-17 03:31N 31°51' E 120°54'6 6.7
2014-Sep-17 02:33N 31°47' E 120°60'202841.3
2014-Sep-17 02:33N 32°02' E 120°44'5386484780.2
2014-Sep-17 02:32N 49°18' W 123°08'53845432.6
2014-Sep-17 01:33N 31°43' E 121°08'5384646119.5
2014-Sep-17 01:32N 49°18' W 123°08'0 0.0
2014-Sep-17 00:32N 49°18' W 123°08'538376296.0
2014-Sep-17 00:28N 31°38' E 121°15'53835795.2
2014-Sep-16 23:32N 49°18' W 123°08'5383165640.6
2014-Sep-16 23:30N 31°32' E 121°22'4705306.6
2014-Sep-16 23:25N 38°50' E 117°53'477553.2
2014-Sep-16 22:33N 31°27' E 121°28'5382307566.6
2014-Sep-16 22:32N 49°18' W 123°08'538437564.9
2014-Sep-16 22:24N 31°43' E 121°08'5 6.3
2014-Sep-16 21:33N 31°40' E 121°13'2724543.1
2014-Sep-16 21:33N 31°22' E 121°37'5380450415.1
2014-Sep-16 21:32N 49°18' W 123°08'97017028.3
2014-Sep-16 21:29N 33°37' W 117°55'9701028.5
2014-Sep-16 20:32N 49°18' W 123°08'5379122557.5
2014-Sep-16 20:30N 31°16' E 121°46'609597949.6
2014-Sep-16 20:26N 33°37' W 117°55'610385152.8
2014-Sep-16 20:22N 31°24' E 121°30'8261.5
2014-Sep-16 20:20N 31°17' E 121°34'3 4.3
2014-Sep-16 19:33N 31°20' E 121°33'5385775423.8
2014-Sep-16 19:32N 49°18' W 123°08'97017196.2
2014-Sep-16 19:29N 33°37' W 117°55'610419886.6
2014-Sep-16 19:11N 31°31' E 121°24'53828461.5
2014-Sep-16 18:33N 49°18' W 123°08'53854846892.7
2014-Sep-16 18:32N 31°22' E 121°30'61445.5
2014-Sep-16 18:32N 31°28' E 121°27'4 4.5
2014-Sep-16 17:33N 31°25' E 121°30'5383523729.6
2014-Sep-16 17:32N 49°18' W 123°08'5383242229.9
2014-Sep-16 17:31N 31°24' E 121°31'53835505.2
2014-Sep-16 16:32N 49°18' W 123°08'537696759.8
2014-Sep-16 16:29N 30°52' E 122°17'58437.7
2014-Sep-16 16:21N 31°29' E 121°25'6480.1
2014-Sep-16 15:33N 30°47' E 122°20'5378328138.4
2014-Sep-16 15:32N 49°18' W 123°08'5384158881.7
2014-Sep-16 15:30N 31°32' E 121°20'6972.3
2014-Sep-16 14:33N 30°47' E 122°20'5378328135.7
2014-Sep-16 14:33N 49°18' W 123°08'583246862.3
2014-Sep-16 14:25N 24°50' E 118°59'398463.7
2014-Sep-16 13:33N 30°47' E 122°20'40360423.4
2014-Sep-16 13:33N 24°46' E 118°56'5837618068.6
2014-Sep-16 13:33N 49°18' W 123°08'538629510.6
2014-Sep-16 13:22N 31°22' E 121°30'262359.2
2014-Sep-16 13:21N 31°41' E 121°09'53856677.5
2014-Sep-16 12:33N 49°18' W 123°08'5384880947.9
2014-Sep-16 12:32N 30°43' E 122°16'56668.4
2014-Sep-16 12:27N 31°22' E 121°30'273404.8
2014-Sep-16 12:27N 31°42' E 121°08'424.3
2014-Sep-16 12:16N 31°46' E 121°06'91126.6
2014-Sep-16 11:33N 30°35' E 122°12'9127229.9
2014-Sep-16 11:33N 31°45' E 121°05'5385842939.4
2014-Sep-16 11:33N 49°18' W 123°08'538658399.3
2014-Sep-16 11:27N 31°22' E 121°30'53865932.8
2014-Sep-16 10:33N 49°18' W 123°08'5386195843.6
2014-Sep-16 10:31N 31°22' E 121°30'6113661.6
2014-Sep-16 10:31N 30°28' E 122°04'6163.4
2014-Sep-16 09:33N 31°22' E 121°30'5386605892.3
2014-Sep-16 09:33N 49°18' W 123°08'0 0.0
2014-Sep-16 08:33N 49°18' W 123°08'0 0.0
2014-Sep-16 07:33N 49°18' W 123°08'538781150.2
2014-Sep-16 07:29N 31°46' E 120°60'113318.3
2014-Sep-16 07:07N 30°04' E 121°55'54329402.1
2014-Sep-16 06:33N 49°18' W 123°08'54346520888.5
2014-Sep-16 06:33N 29°59' E 121°58'9 9.6
2014-Sep-16 05:33N 29°55' E 122°08'5430368821.6
2014-Sep-16 05:33N 49°18' W 123°08'54415521.8
2014-Sep-16 04:33N 29°46' E 122°04'5441362700.1
2014-Sep-16 04:33N 49°18' W 123°08'54475513.0
2014-Sep-16 03:33N 29°38' E 122°05'5447466895.3
2014-Sep-16 03:33N 49°18' W 123°08'538624635.7
2014-Sep-16 03:19N 31°22' E 121°30'53866892.4
2014-Sep-16 02:33N 49°18' W 123°08'54522453588.5
2014-Sep-16 02:32N 29°30' E 122°06'1171881.3
2014-Sep-16 02:29N 31°22' E 121°30'61508.4
2014-Sep-16 02:22N 32°00' E 120°34'53956612.9
2014-Sep-16 01:33N 49°18' W 123°08'9702720.8
2014-Sep-16 01:11N 33°37' W 117°55'9701507.9
2014-Sep-16 00:33N 49°18' W 123°08'5397607118.4
2014-Sep-16 00:32N 32°01' E 120°31'6131126846.0
2014-Sep-16 00:29N 33°37' W 117°55'9701028.2
2014-Sep-15 23:33N 49°18' W 123°08'53971214243.4
2014-Sep-15 23:32N 32°01' E 120°31'61312758917.8
2014-Sep-15 23:32N 33°37' W 117°55'970976.5
2014-Sep-15 22:33N 49°18' W 123°08'970139632.3
2014-Sep-15 22:32N 33°37' W 117°55'611042383.3
2014-Sep-15 22:24N 31°46' E 121°06'341090.5
2014-Sep-15 22:22N 32°01' E 120°31'0 0.1
2014-Sep-15 21:33N 32°01' E 120°31'389151.2
2014-Sep-15 21:33N 31°42' E 121°10'53841076825.0
2014-Sep-15 21:33N 49°18' W 123°08'97013273.1
2014-Sep-15 21:28N 33°37' W 117°55'651815539.9
2014-Sep-15 21:03N 24°30' E 118°15'588311598.8
2014-Sep-15 20:33N 49°18' W 123°08'5397175025.0
2014-Sep-15 20:31N 32°01' E 120°31'65281.7
2014-Sep-15 20:17N 31°21' E 121°31'53867278.2
2014-Sep-15 19:33N 49°18' W 123°08'5386188242.8
2014-Sep-15 19:31N 31°21' E 121°31'65167.7
2014-Sep-15 19:08N 32°01' E 120°31'533348.6
2014-Sep-15 19:07N 31°32' E 121°23'53839438.9
2014-Sep-15 18:33N 49°18' W 123°08'53821076398.3
2014-Sep-15 18:32N 31°30' E 121°26'10105.7
2014-Sep-15 18:27N 31°21' E 121°31'671516.8
2014-Sep-15 18:24N 32°02' E 120°28'6778.6
2014-Sep-15 17:33N 31°21' E 121°31'5386807875.3
2014-Sep-15 17:33N 49°18' W 123°08'53822421974.6
2014-Sep-15 17:33N 31°26' E 121°30'6626201.7
2014-Sep-15 17:32N 31°60' E 120°23'681154.5
2014-Sep-15 17:29N 31°24' E 121°31'1 0.8
2014-Sep-15 16:33N 31°23' E 121°30'5384430759.5
2014-Sep-15 16:33N 49°18' W 123°08'5386646299.6
2014-Sep-15 16:32N 31°21' E 121°31'346.5
2014-Sep-15 16:28N 31°19' E 121°33'1 1.6
2014-Sep-15 15:33N 31°18' E 121°34'4651.8
2014-Sep-15 15:33N 31°15' E 121°30'53912426041.9
2014-Sep-15 15:33N 49°18' W 123°08'9709138.3
2014-Sep-15 15:26N 33°37' W 117°55'9701085.1
2014-Sep-15 14:33N 49°18' W 123°08'5397132171.3
2014-Sep-15 14:30N 31°10' E 121°28'53975628.4
2014-Sep-15 13:33N 49°18' W 123°08'9706211.4
2014-Sep-15 13:23N 33°37' W 117°55'9701149.0
2014-Sep-15 12:33N 49°18' W 123°08'9702384.4
2014-Sep-15 12:08N 33°37' W 117°55'9701634.3
2014-Sep-15 11:33N 49°18' W 123°08'970151775.1
2014-Sep-15 11:32N 33°37' W 117°55'970976.2
2014-Sep-15 10:33N 49°18' W 123°08'5386103683.0
2014-Sep-15 10:30N 31°22' E 121°30'53865682.5
2014-Sep-15 09:33N 49°18' W 123°08'538656526.2
2014-Sep-15 09:27N 31°21' E 121°30'53865956.5
2014-Sep-15 08:33N 49°18' W 123°08'538626705.9
2014-Sep-15 08:21N 31°21' E 121°30'53866746.2
2014-Sep-15 07:33N 49°18' W 123°08'5386280992.9
2014-Sep-15 07:32N 31°21' E 121°30'53865489.4
2014-Sep-15 06:33N 49°18' W 123°08'538635575.3
2014-Sep-15 06:24N 31°21' E 121°30'53866346.5
2014-Sep-15 05:33N 49°18' W 123°08'538616501.1
2014-Sep-15 05:13N 31°21' E 121°30'53867998.7
2014-Sep-15 04:33N 49°18' W 123°08'970158674.0
2014-Sep-15 04:32N 33°37' W 117°55'6105430915.1
2014-Sep-15 04:32N 31°22' E 121°30'53865500.4
2014-Sep-15 03:33N 49°18' W 123°08'53861491456.1
2014-Sep-15 03:33N 31°22' E 121°30'61051997876.8
2014-Sep-15 03:32N 33°37' W 117°55'970976.2
2014-Sep-15 02:33N 49°18' W 123°08'5386276984.7
2014-Sep-15 02:32N 31°22' E 121°30'610570212.9
2014-Sep-15 02:26N 33°37' W 117°55'61046839.7
2014-Sep-15 01:33N 31°22' E 121°30'53864846984.1
2014-Sep-15 01:33N 49°18' W 123°08'0 0.0
2014-Sep-15 00:33N 49°18' W 123°08'97017028.4
2014-Sep-15 00:29N 33°37' W 117°55'9701027.9
2014-Sep-14 23:33N 49°18' W 123°08'0 0.0
2014-Sep-14 22:33N 49°18' W 123°08'0 0.0
2014-Sep-14 21:33N 49°18' W 123°08'9703253.3
2014-Sep-14 21:15N 33°37' W 117°55'0 0.0
2014-Sep-14 20:33N 33°37' W 117°55'970498689.7
2014-Sep-14 20:33N 49°18' W 123°08'0 0.0
2014-Sep-14 19:33N 49°18' W 123°08'9709138.3
2014-Sep-14 19:27N 33°37' W 117°55'9701085.1
2014-Sep-14 18:33N 49°18' W 123°08'97017281.3
2014-Sep-14 18:30N 33°37' W 117°55'610433095.7
2014-Sep-14 18:18N 31°17' E 121°34'53877096.2
2014-Sep-14 17:33N 49°18' W 123°08'53851292435.3
2014-Sep-14 17:33N 31°21' E 121°32'6103116255.0
2014-Sep-14 17:30N 33°37' W 117°55'61036531.4
2014-Sep-14 16:33N 31°23' E 121°30'5384646088.8
2014-Sep-14 16:33N 49°18' W 123°08'0 0.0
2014-Sep-14 15:27N 49°18' W 123°08'9709067.1
2014-Sep-14 15:21N 33°37' W 117°55'9701222.3
2014-Sep-14 14:33N 49°18' W 123°08'97017196.2
2014-Sep-14 14:30N 33°37' W 117°55'9701027.9
2014-Sep-14 13:33N 49°18' W 123°08'9709090.6
2014-Sep-14 13:27N 33°37' W 117°55'9701086.1
2014-Sep-14 12:33N 49°18' W 123°08'5386171580.2
2014-Sep-14 12:31N 31°21' E 121°30'53865558.6
2014-Sep-14 11:33N 49°18' W 123°08'5386387771.3
2014-Sep-14 11:32N 31°21' E 121°30'6104142699.5
2014-Sep-14 11:30N 33°37' W 117°55'61406560.9
2014-Sep-14 10:33N 31°60' E 120°21'5405694935.1
2014-Sep-14 10:33N 49°18' W 123°08'538697430.2
2014-Sep-14 10:30N 31°21' E 121°30'803689.9
2014-Sep-14 10:28N 31°58' E 120°07'356389.7
2014-Sep-14 09:33N 26°03' E 119°30'33657560.6
2014-Sep-14 09:33N 31°21' E 121°30'53863231457.6
2014-Sep-14 09:33N 49°18' W 123°08'5398498291.3
2014-Sep-14 09:32N 32°03' E 120°27'131462.8
2014-Sep-14 09:32N 31°57' E 120°13'360370.1
2014-Sep-14 08:33N 25°59' E 119°27'5752690220.3
2014-Sep-14 08:33N 49°18' W 123°08'54081145321.7
2014-Sep-14 08:33N 31°58' E 120°19'13462.2
2014-Sep-14 08:31N 32°01' E 120°35'622899.9
2014-Sep-14 08:30N 31°21' E 121°30'340363.5
2014-Sep-14 07:34N 25°59' E 119°27'5752714020.4
2014-Sep-14 07:33N 49°18' W 123°08'540847255.3
2014-Sep-14 07:26N 31°57' E 120°20'70239.6
2014-Sep-14 07:09N 31°21' E 121°30'340580.9
2014-Sep-14 06:33N 25°59' E 119°27'5752862775.4
2014-Sep-14 06:33N 49°18' W 123°08'540882847.8
2014-Sep-14 06:29N 31°57' E 120°20'70642.0
2014-Sep-14 06:23N 31°21' E 121°30'340415.2
2014-Sep-14 05:33N 25°59' E 119°27'5752766911.5
2014-Sep-14 05:33N 49°18' W 123°08'540883558.8
2014-Sep-14 05:29N 31°57' E 120°20'361389.7
2014-Sep-14 04:33N 25°59' E 119°27'5752739521.8
2014-Sep-14 04:33N 49°18' W 123°08'5386387771.7
2014-Sep-14 04:32N 31°21' E 121°30'701369.8
2014-Sep-14 04:29N 31°57' E 120°20'54085791.0
2014-Sep-14 03:33N 49°18' W 123°08'57521294163.1
2014-Sep-14 03:33N 25°59' E 119°27'3402004.4
2014-Sep-14 03:23N 31°21' E 121°30'340412.5
2014-Sep-14 02:33N 25°59' E 119°27'57523451101.7
2014-Sep-14 02:33N 49°18' W 123°08'97017111.8
2014-Sep-14 02:30N 33°37' W 117°55'6104845219.2
2014-Sep-14 02:29N 31°21' E 121°30'340366.3
2014-Sep-14 01:34N 25°59' E 119°27'5752766911.8
2014-Sep-14 01:33N 49°18' W 123°08'5386334285.8
2014-Sep-14 01:32N 31°21' E 121°30'70463.3
2014-Sep-14 01:23N 31°57' E 120°20'614325713.1
2014-Sep-14 01:09N 33°37' W 117°55'970269.9
2014-Sep-13 21:33N 49°18' W 123°08'5752363274.2
2014-Sep-13 21:32N 25°59' E 119°27'36168477.3
2014-Sep-13 21:32N 31°57' E 120°20'361371.5
2014-Sep-13 20:33N 25°59' E 119°27'5752900288.2
2014-Sep-13 20:33N 49°18' W 123°08'970166229.9
2014-Sep-13 20:33N 33°37' W 117°55'611114359.7
2014-Sep-13 20:07N 31°44' E 121°07'356633.0
2014-Sep-13 19:33N 25°59' E 119°27'5752986029.9
2014-Sep-13 19:33N 49°18' W 123°08'970134262.6
2014-Sep-13 19:33N 33°37' W 117°55'61093665540.1
2014-Sep-13 19:33N 31°41' E 121°11'47850.1
2014-Sep-13 19:29N 31°58' E 120°20'362386.1
2014-Sep-13 18:33N 25°59' E 119°27'575220706628.7
2014-Sep-13 18:33N 49°18' W 123°08'97064645.0
2014-Sep-13 18:32N 33°37' W 117°55'6142124926.7
2014-Sep-13 18:29N 31°58' E 120°20'70194.9
2014-Sep-13 18:08N 31°21' E 121°30'340597.3
2014-Sep-13 17:33N 25°59' E 119°27'34055661.5
2014-Sep-13 17:33N 31°21' E 121°30'704956.5
2014-Sep-13 17:32N 31°58' E 120°20'6142145473.6
2014-Sep-13 17:30N 33°37' W 117°55'64026828.8
2014-Sep-13 16:33N 25°59' E 119°27'5752102508.0
2014-Sep-13 16:30N 49°18' W 123°08'540847251.6
2014-Sep-13 16:23N 31°58' E 120°20'701163.6
2014-Sep-13 16:20N 31°21' E 121°30'340439.1
2014-Sep-13 15:33N 25°59' E 119°27'5752115036.7
2014-Sep-13 15:30N 49°18' W 123°08'53866462860.9
2014-Sep-13 15:30N 31°21' E 121°30'70608.4
2014-Sep-13 15:23N 31°58' E 120°20'70241.3
2014-Sep-13 15:06N 31°24' E 121°32'343636.7
2014-Sep-13 14:33N 25°59' E 119°27'57521035330.5
2014-Sep-13 14:33N 49°18' W 123°08'5386328620.0
2014-Sep-13 14:32N 31°21' E 121°30'701403.5
2014-Sep-13 14:29N 31°58' E 120°20'362389.9
2014-Sep-13 13:33N 25°59' E 119°27'57521089821.6
2014-Sep-13 13:33N 49°18' W 123°08'5408324464.1
2014-Sep-13 13:32N 31°58' E 120°20'70126317.3
2014-Sep-13 13:32N 31°21' E 121°30'340347.9
2014-Sep-13 12:33N 25°59' E 119°27'57521089821.6
2014-Sep-13 12:33N 49°18' W 123°08'5408313997.2
2014-Sep-13 12:32N 31°58' E 120°20'707894.8
2014-Sep-13 12:32N 31°21' E 121°30'340351.2
2014-Sep-13 11:33N 25°59' E 119°27'57521218035.9
2014-Sep-13 11:33N 49°18' W 123°08'5408286294.5
2014-Sep-13 11:32N 31°58' E 120°20'701459.6
2014-Sep-13 11:29N 31°21' E 121°30'340366.5
2014-Sep-13 10:33N 25°59' E 119°27'340136077.5
2014-Sep-13 10:33N 31°21' E 121°30'53862423570.6
2014-Sep-13 10:33N 49°18' W 123°08'541124657.7
2014-Sep-13 10:20N 31°57' E 120°17'360464.5
2014-Sep-13 09:33N 25°59' E 119°27'57521294163.1
2014-Sep-13 09:33N 49°18' W 123°08'538671809.6
2014-Sep-13 09:29N 31°21' E 121°30'53446.2
2014-Sep-13 09:29N 31°20' E 121°25'338367.5
2014-Sep-13 08:33N 25°59' E 119°27'57521294163.1
2014-Sep-13 08:33N 49°18' W 123°08'5386173112.7
2014-Sep-13 08:31N 31°21' E 121°30'340352.8
2014-Sep-13 07:34N 25°59' E 119°27'57521218034.8
2014-Sep-13 07:33N 49°18' W 123°08'538653559.6
2014-Sep-13 07:27N 31°21' E 121°30'340379.9
2014-Sep-13 06:33N 25°59' E 119°27'57521882419.8
2014-Sep-13 06:33N 49°18' W 123°08'538665281.5
2014-Sep-13 06:28N 31°21' E 121°30'527.2
2014-Sep-13 06:18N 31°20' E 121°25'53917273.8
2014-Sep-13 05:33N 49°18' W 123°08'57525176648.0
2014-Sep-13 05:33N 25°59' E 119°27'34037106.4
2014-Sep-13 05:33N 31°21' E 121°30'5109.5
2014-Sep-13 05:30N 31°20' E 121°25'338357.9
2014-Sep-13 04:33N 25°59' E 119°27'57521725551.5
2014-Sep-13 04:33N 49°18' W 123°08'5386152671.4
2014-Sep-13 04:31N 31°22' E 121°29'12265.7
2014-Sep-13 04:31N 31°21' E 121°30'884.2
2014-Sep-13 04:26N 31°29' E 121°27'53826162.5
2014-Sep-13 03:33N 49°18' W 123°08'57522300734.5
2014-Sep-13 03:33N 25°59' E 119°27'3405167.2
2014-Sep-13 03:29N 31°21' E 121°30'340366.3
2014-Sep-13 02:33N 25°59' E 119°27'57521592816.2
2014-Sep-13 02:33N 49°18' W 123°08'5382587104.6
2014-Sep-13 02:33N 31°25' E 121°31'469.4
2014-Sep-13 02:29N 31°21' E 121°30'340365.9
2014-Sep-13 01:33N 25°59' E 119°27'57521882420.8
2014-Sep-13 01:33N 49°18' W 123°08'53864846992.0
2014-Sep-13 01:33N 31°21' E 121°31'132.1
2014-Sep-13 01:32N 31°21' E 121°30'340350.3
2014-Sep-13 00:33N 25°59' E 119°27'340174945.2
2014-Sep-13 00:33N 31°21' E 121°30'53863231460.4
2014-Sep-13 00:33N 49°18' W 123°08'9702086.6
2014-Sep-13 00:05N 33°37' W 117°55'640212041.4
2014-Sep-12 23:33N 25°59' E 119°27'57521725552.4
2014-Sep-12 23:33N 49°18' W 123°08'538671545.2
2014-Sep-12 23:29N 31°21' E 121°30'610446460.7
2014-Sep-12 23:21N 33°37' W 117°55'64028106.7
2014-Sep-12 22:34N 25°59' E 119°27'57522070661.0
2014-Sep-12 22:33N 49°18' W 123°08'5386195846.1
2014-Sep-12 22:32N 31°21' E 121°30'610412724.9
2014-Sep-12 22:03N 33°37' W 117°55'640213050.5
2014-Sep-12 21:33N 25°59' E 119°27'57522070661.0
2014-Sep-12 21:33N 49°18' W 123°08'970151774.2
2014-Sep-12 21:33N 33°37' W 117°55'6104278176.2
2014-Sep-12 21:32N 31°21' E 121°30'340351.1
2014-Sep-12 20:33N 25°59' E 119°27'57522070662.9
2014-Sep-12 20:33N 49°18' W 123°08'5386276982.1
2014-Sep-12 20:32N 31°21' E 121°30'610464256.8
2014-Sep-12 20:26N 33°37' W 117°55'64027252.1
2014-Sep-12 19:33N 25°59' E 119°27'57522300734.5
2014-Sep-12 19:33N 49°18' W 123°08'97065864.7
2014-Sep-12 19:32N 33°37' W 117°55'610417736.6
2014-Sep-12 19:12N 31°21' E 121°30'340532.9
2014-Sep-12 18:33N 25°59' E 119°27'57522070662.9
2014-Sep-12 18:33N 49°18' W 123°08'97067130.9
2014-Sep-12 18:32N 33°37' W 117°55'6104301036.6
2014-Sep-12 18:31N 31°21' E 121°30'53865584.3
2014-Sep-12 17:33N 49°18' W 123°08'53861615716.9
2014-Sep-12 17:33N 31°21' E 121°30'340612276.8
2014-Sep-12 17:33N 25°59' E 119°27'640239668.2
2014-Sep-12 17:23N 33°37' W 117°55'64027687.5
2014-Sep-12 16:33N 25°59' E 119°27'57522588326.3
2014-Sep-12 16:33N 49°18' W 123°08'97064645.0
2014-Sep-12 16:32N 33°37' W 117°55'6104197979.0
2014-Sep-12 16:31N 31°21' E 121°30'340357.3
2014-Sep-12 15:33N 25°59' E 119°27'57522300734.5
2014-Sep-12 15:33N 49°18' W 123°08'5386510230.6
2014-Sep-12 15:33N 31°21' E 121°30'61041465061.2
2014-Sep-12 15:32N 33°37' W 117°55'64026514.2
2014-Sep-12 14:33N 25°59' E 119°27'57522588326.3
2014-Sep-12 14:33N 49°18' W 123°08'97065864.3
2014-Sep-12 14:32N 33°37' W 117°55'970984.4
2014-Sep-12 13:33N 49°18' W 123°08'57521725551.5
2014-Sep-12 13:33N 25°59' E 119°27'0 0.0
2014-Sep-12 12:34N 25°59' E 119°27'57522588326.3
2014-Sep-12 12:33N 49°18' W 123°08'538626559.9
2014-Sep-12 12:21N 31°21' E 121°30'53866758.0
2014-Sep-12 11:33N 49°18' W 123°08'5752591616.9
2014-Sep-12 11:33N 25°59' E 119°27'34094198.1
2014-Sep-12 11:33N 31°21' E 121°30'340345.2
2014-Sep-12 10:33N 25°59' E 119°27'57525176652.6
2014-Sep-12 10:33N 49°18' W 123°08'5386121179.0
2014-Sep-12 10:31N 31°21' E 121°30'28109.5
2014-Sep-12 10:15N 31°42' E 121°08'354506.3
2014-Sep-12 09:33N 25°59' E 119°27'57525176652.6
2014-Sep-12 09:33N 49°18' W 123°08'538618878.9
2014-Sep-12 09:16N 31°21' E 121°30'340476.6
2014-Sep-12 08:33N 25°59' E 119°27'575210353305.2
2014-Sep-12 08:33N 49°18' W 123°08'5386380169.3
2014-Sep-12 08:33N 31°21' E 121°30'61047325272.4
2014-Sep-12 08:33N 33°37' W 117°55'6528199158.0
2014-Sep-12 08:31N 24°22' E 118°10'4695482.0
2014-Sep-12 08:25N 31°44' E 121°04'356411.4
2014-Sep-12 07:34N 25°59' E 119°27'57523451101.7
2014-Sep-12 07:33N 49°18' W 123°08'5386158921.8
2014-Sep-12 07:31N 31°21' E 121°30'610475517.4
2014-Sep-12 07:27N 33°37' W 117°55'64027238.0
2014-Sep-12 06:33N 25°59' E 119°27'575210352851.7
2014-Sep-12 06:33N 49°18' W 123°08'5386472890.1
2014-Sep-12 06:33N 31°21' E 121°30'61041690430.1
2014-Sep-12 06:33N 33°37' W 117°55'970984.4
2014-Sep-12 05:33N 49°18' W 123°08'5742210939.0
2014-Sep-12 05:32N 26°06' E 119°32'3325781.4
2014-Sep-12 05:28N 31°21' E 121°30'53865886.0
2014-Sep-12 04:33N 49°18' W 123°08'970145450.3
2014-Sep-12 04:33N 33°37' W 117°55'6104879023.7
2014-Sep-12 04:33N 31°21' E 121°30'53865467.7
2014-Sep-12 03:34N 49°18' W 123°08'5386692456.4
2014-Sep-12 03:33N 31°21' E 121°30'610421975918.6
2014-Sep-12 03:33N 33°37' W 117°55'970976.4
2014-Sep-12 02:33N 49°18' W 123°08'5386807860.6
2014-Sep-12 02:33N 31°21' E 121°30'32205.9
2014-Sep-12 02:24N 31°44' E 121°05'53866420.1
2014-Sep-12 01:33N 49°18' W 123°08'970158672.1
2014-Sep-12 01:33N 33°37' W 117°55'647518845.4
2014-Sep-12 01:12N 24°45' E 118°54'58418993.1
2014-Sep-12 00:34N 49°18' W 123°08'5836173641.7
2014-Sep-12 00:32N 24°47' E 118°56'6472202590.4
2014-Sep-12 00:30N 33°37' W 117°55'610425317.8
2014-Sep-12 00:15N 31°21' E 121°30'53867761.7
2014-Sep-11 23:33N 49°18' W 123°08'5386646289.1
2014-Sep-11 23:33N 31°21' E 121°30'610439033.5
2014-Sep-11 23:24N 33°37' W 117°55'9701162.1
2014-Sep-11 22:34N 49°18' W 123°08'5386265598.0
2014-Sep-11 22:32N 31°21' E 121°30'6104135653.3
2014-Sep-11 22:30N 33°37' W 117°55'9701037.1
2014-Sep-11 21:34N 49°18' W 123°08'5386380170.0
2014-Sep-11 21:33N 31°21' E 121°30'610410987927.1
2014-Sep-11 21:33N 33°37' W 117°55'970983.9
2014-Sep-11 20:34N 49°18' W 123°08'5386510228.2
2014-Sep-11 20:33N 31°21' E 121°30'61041569703.9
2014-Sep-11 20:33N 33°37' W 117°55'970984.2
2014-Sep-11 19:34N 49°18' W 123°08'538656198.9
2014-Sep-11 19:28N 31°21' E 121°30'53865716.0
2014-Sep-11 18:31N 49°18' W 123°08'538642425.6
2014-Sep-11 18:24N 31°21' E 121°30'6104123458.4
2014-Sep-11 18:21N 33°37' W 117°55'0 0.0
2014-Sep-11 17:33N 33°37' W 117°55'6104137347.5
2014-Sep-11 17:30N 31°21' E 121°30'5386131894.6
2014-Sep-11 17:28N 49°18' W 123°08'9701060.4
2014-Sep-11 16:33N 33°37' W 117°55'97027705.0
2014-Sep-11 16:31N 49°18' W 123°08'53861140500.7
2014-Sep-11 16:30N 31°21' E 121°30'2 1.8
2014-Sep-11 15:33N 31°21' E 121°32'6103535907.6
2014-Sep-11 15:33N 33°37' W 117°55'6104343368.2
2014-Sep-11 15:32N 31°21' E 121°30'5386302944.7
2014-Sep-11 15:31N 49°18' W 123°08'539925506.6
2014-Sep-11 15:18N 32°02' E 120°27'6688.3
2014-Sep-11 14:33N 31°23' E 121°30'61031569421.2
2014-Sep-11 14:33N 33°37' W 117°55'97011407.9
2014-Sep-11 14:28N 49°18' W 123°08'53835849.4
2014-Sep-11 13:32N 31°26' E 121°29'5213.4
2014-Sep-11 13:31N 31°21' E 121°30'5386668573.6
2014-Sep-11 13:31N 49°18' W 123°08'0 0.0
2014-Sep-11 12:31N 49°18' W 123°08'5386131004.2
2014-Sep-11 12:28N 31°21' E 121°30'53865339.7
2014-Sep-11 11:28N 49°18' W 123°08'5386646287.2
2014-Sep-11 11:27N 31°21' E 121°30'0 0.1
2014-Sep-11 10:33N 31°22' E 121°30'24774.7
2014-Sep-11 10:31N 31°40' E 121°12'5384538409.2
2014-Sep-11 10:31N 49°18' W 123°08'53855543.2
2014-Sep-11 09:32N 31°44' E 121°06'5385190044.9
2014-Sep-11 09:31N 49°18' W 123°08'97064644.6
2014-Sep-11 09:30N 33°37' W 117°55'970985.0
2014-Sep-11 08:31N 49°18' W 123°08'9704504.3
2014-Sep-11 08:18N 33°37' W 117°55'9701235.2
2014-Sep-11 07:31N 49°18' W 123°08'538614655.1
2014-Sep-11 07:09N 31°21' E 121°30'0 0.0
2014-Sep-11 06:33N 31°21' E 121°30'5386165715.9
2014-Sep-11 06:31N 49°18' W 123°08'53865455.5
2014-Sep-11 05:31N 31°21' E 121°30'5386421494.4
2014-Sep-11 05:31N 49°18' W 123°08'0 0.0
2014-Sep-11 04:28N 49°18' W 123°08'5386137508.8
2014-Sep-11 04:25N 31°21' E 121°30'53865914.8
2014-Sep-11 03:31N 49°18' W 123°08'538633719.5
2014-Sep-11 03:21N 31°22' E 121°30'53866411.6
2014-Sep-11 02:31N 49°18' W 123°08'538682156.0
2014-Sep-11 02:27N 31°22' E 121°30'0 0.0
2014-Sep-11 01:32N 31°22' E 121°30'5386217851.8
2014-Sep-11 01:31N 49°18' W 123°08'0 0.0
2014-Sep-11 00:31N 49°18' W 123°08'53866462943.3
2014-Sep-11 00:31N 31°22' E 121°30'53865390.3
2014-Sep-10 23:31N 49°18' W 123°08'538335886.7
2014-Sep-10 23:22N 31°24' E 121°31'6 7.1
2014-Sep-10 22:33N 31°28' E 121°27'5383135516.3
2014-Sep-10 22:31N 49°18' W 123°08'9 9.4
2014-Sep-10 21:33N 49°18' W 122°54'9266.8
2014-Sep-10 21:31N 49°18' W 123°08'9 9.3
2014-Sep-10 20:32N 49°18' W 122°54'9355.3
2014-Sep-10 20:31N 49°18' W 123°08'54125652.0
2014-Sep-10 19:33N 31°57' E 120°16'5422673077.4
2014-Sep-10 19:33N 49°17' W 122°54'9254.8
2014-Sep-10 19:31N 49°18' W 123°08'0 0.0
2014-Sep-10 18:31N 49°18' W 123°08'9277.0
2014-Sep-10 18:29N 49°17' W 122°54'9 9.3
2014-Sep-10 17:31N 49°18' W 123°08'9160.1
2014-Sep-10 17:27N 49°18' W 122°54'9 9.7
2014-Sep-10 16:31N 49°18' W 123°08'91415.1
2014-Sep-10 16:30N 49°17' W 122°54'0 0.1
2014-Sep-10 15:33N 49°18' W 122°54'9205.2
2014-Sep-10 15:31N 49°18' W 123°08'0 0.0
2014-Sep-10 14:31N 49°18' W 123°08'0 0.0
2014-Sep-10 13:31N 49°18' W 123°08'0 0.0
2014-Sep-10 12:31N 49°18' W 123°08'0 0.0
2014-Sep-10 11:31N 49°18' W 123°08'0 0.0
2014-Sep-10 10:28N 49°18' W 123°08'0 0.0
2014-Sep-10 09:31N 49°18' W 123°08'517294037.8
2014-Sep-10 09:28N 38°53' E 117°44'602537724.0
2014-Sep-10 09:18N 33°37' W 117°55'61398237.6
2014-Sep-10 08:33N 31°60' E 120°22'464830.4
2014-Sep-10 08:33N 31°41' E 121°11'5384186375.5
2014-Sep-10 08:31N 49°18' W 123°08'9704486.9
2014-Sep-10 08:18N 33°37' W 117°55'9701235.3
2014-Sep-10 07:31N 49°18' W 123°08'539723100.4
2014-Sep-10 07:17N 32°02' E 120°30'5 6.3
2014-Sep-10 06:33N 32°01' E 120°35'31831.0
2014-Sep-10 06:31N 31°44' E 121°05'5385923188.3
2014-Sep-10 06:31N 49°18' W 123°08'0 0.0
2014-Sep-10 05:31N 49°18' W 123°08'5385298261.1
2014-Sep-10 05:30N 31°44' E 121°05'53855485.8
2014-Sep-10 04:31N 49°18' W 123°08'538534743.8
2014-Sep-10 04:22N 31°44' E 121°05'53856371.0
2014-Sep-10 03:31N 49°18' W 123°08'5385220304.3
2014-Sep-10 03:29N 31°44' E 121°05'611232121.4
2014-Sep-10 03:18N 33°37' W 117°55'9701235.7
2014-Sep-10 02:31N 49°18' W 123°08'9702335.0
2014-Sep-10 02:06N 33°37' W 117°55'9701659.9
2014-Sep-10 01:31N 49°18' W 123°08'0 0.0
2014-Sep-10 00:31N 49°18' W 123°08'0 0.0
2014-Sep-09 23:31N 49°18' W 123°08'0 0.0
2014-Sep-09 22:31N 49°18' W 123°08'53925446.9
2014-Sep-09 21:32N 31°60' E 120°38'5392539244.8
2014-Sep-09 21:31N 49°18' W 123°08'53965490.2
2014-Sep-09 20:32N 32°01' E 120°33'5396308321.7
2014-Sep-09 20:31N 49°18' W 123°08'544028339.2
2014-Sep-09 20:19N 29°47' E 122°04'158205.6
2014-Sep-09 19:33N 32°02' E 120°29'5398132193.0
2014-Sep-09 19:31N 49°18' W 123°08'543220958.6
2014-Sep-09 19:15N 29°55' E 122°06'153216.6
2014-Sep-09 18:33N 32°01' E 120°25'5402153118.8
2014-Sep-09 18:31N 49°18' W 123°08'54075609.3
2014-Sep-09 17:33N 31°59' E 120°20'5407152064.6
2014-Sep-09 17:31N 49°18' W 123°08'538412871.0
2014-Sep-09 17:06N 31°43' E 121°08'53849261.2
2014-Sep-09 16:31N 49°18' W 123°08'5415146566.4
2014-Sep-09 16:29N 31°56' E 120°13'54155622.5
2014-Sep-09 15:31N 49°18' W 123°08'0 0.0
2014-Sep-09 14:31N 49°18' W 123°08'0 0.0
2014-Sep-09 13:31N 49°18' W 123°08'0 0.0
2014-Sep-09 12:31N 49°18' W 123°08'53865600.7
2014-Sep-09 11:33N 31°22' E 121°29'5386141531.1
2014-Sep-09 11:31N 49°18' W 123°08'0 0.0
2014-Sep-09 10:31N 49°18' W 123°08'0 0.0
2014-Sep-09 09:31N 49°18' W 123°08'0 0.0
2014-Sep-09 08:31N 49°18' W 123°08'0 0.0
2014-Sep-09 07:31N 49°18' W 123°08'0 0.0
2014-Sep-09 06:31N 49°18' W 123°08'0 0.0
2014-Sep-09 05:31N 49°18' W 123°08'538012204.4
2014-Sep-09 05:05N 31°21' E 121°38'3 5.2
2014-Sep-09 04:32N 31°23' E 121°35'5381691867.3
2014-Sep-09 04:31N 49°18' W 123°08'0 0.0
2014-Sep-09 03:28N 49°18' W 123°08'538333068.2
2014-Sep-09 03:18N 31°26' E 121°30'53836835.3
2014-Sep-09 02:31N 49°18' W 123°08'538327257.1
2014-Sep-09 02:19N 31°28' E 121°26'7159.7
2014-Sep-09 02:17N 31°22' E 121°28'53887107.2
2014-Sep-09 01:31N 49°18' W 123°08'538449955.1
2014-Sep-09 01:25N 31°23' E 121°30'53846038.2
2014-Sep-09 00:31N 49°18' W 123°08'538450343.9
2014-Sep-09 00:25N 31°40' E 121°12'53846025.0
2014-Sep-08 23:31N 49°18' W 123°08'5386119683.6
2014-Sep-08 23:28N 31°46' E 121°03'53865647.8
2014-Sep-08 22:31N 49°18' W 123°08'0 0.0
2014-Sep-08 21:31N 49°18' W 123°08'0 0.0
2014-Sep-08 20:31N 49°18' W 123°08'5436191864.7
2014-Sep-08 20:29N 29°34' E 122°23'145486.7
2014-Sep-08 20:12N 31°43' E 121°07'138210.6
2014-Sep-08 19:32N 29°44' E 122°28'5424305110.7
2014-Sep-08 19:31N 49°18' W 123°08'539324389.9
2014-Sep-08 19:18N 31°60' E 120°38'160212.9
2014-Sep-08 18:33N 29°54' E 122°33'5423976146.8
2014-Sep-08 18:33N 49°18' W 122°53'10440.9
2014-Sep-08 18:31N 49°18' W 123°08'539467187.5
2014-Sep-08 18:26N 32°03' E 120°33'6 6.4
2014-Sep-08 17:33N 32°03' E 120°26'5409486846.6
2014-Sep-08 17:33N 49°18' W 122°53'10414.4
2014-Sep-08 17:31N 49°18' W 123°08'5401234259.1
2014-Sep-08 17:30N 30°05' E 122°35'126410.3
2014-Sep-08 17:11N 31°46' E 121°06'5 7.3
2014-Sep-08 16:32N 31°42' E 121°09'53841020145.2
2014-Sep-08 16:31N 49°18' W 123°08'53855526.1
2014-Sep-08 15:33N 30°23' E 122°37'  

Dump ship's entire track history